Time;durP1;ratioP1;P1;durP2;ratioP2;P2;SDS_P1;SDS_P2;PMS_P1;PMS_P2;Temp;Humidity;BMP_temperature;BMP_pressure;BME280_temperature;BME280_humidity;BME280_pressure;Samples;Min_cycle;Max_cycle;Signal;HPM_P1;HPM_P2
2024/03/02 00:00:21;;;;;;;95.70;44.60;;;;;;;7.79;49.28;100753.74;107954;1253;61147;-66
2024/03/02 00:02:49;;;;;;;110.80;50.10;;;;;;;7.91;49.38;100755.30;108107;1253;73819;-68
2024/03/02 00:05:17;;;;;;;115.50;49.80;;;;;;;7.96;49.09;100753.46;108113;1253;70303;-66
2024/03/02 00:07:57;;;;;;;111.80;52.00;;;;;;;7.99;49.00;100748.34;108078;1255;72848;-67
2024/03/02 00:10:36;;;;;;;118.20;55.90;;;;;;;7.99;49.01;100738.73;108070;1253;60354;-66
2024/03/02 00:13:04;;;;;;;102.80;48.50;;;;;;;7.93;49.17;100745.30;107888;1253;59979;-68
2024/03/02 00:15:42;;;;;;;114.90;49.40;;;;;;;7.84;49.40;100743.52;108140;1253;72650;-67
2024/03/02 00:18:14;;;;;;;114.00;48.90;;;;;;;7.74;49.73;100738.08;108077;1253;70155;-66
2024/03/02 00:20:42;;;;;;;106.90;50.10;;;;;;;7.75;49.78;100735.09;108068;1253;72247;-66
2024/03/02 00:23:13;;;;;;;114.60;50.60;;;;;;;7.78;49.72;100730.16;108036;1253;60965;-65
2024/03/02 00:25:47;;;;;;;;;;;;;;;7.83;49.61;100731.13;108075;1253;59348;-65
2024/03/02 00:28:22;;;;;;;106.60;47.70;;;;;;;7.79;49.64;100734.17;108019;1253;74083;-66
2024/03/02 00:30:58;;;;;;;95.00;44.90;;;;;;;7.60;50.02;100731.48;108043;1253;69946;-65
2024/03/02 00:33:28;;;;;;;89.30;43.10;;;;;;;7.60;50.30;100734.98;108096;1253;72545;-66
2024/03/02 00:35:56;;;;;;;82.90;41.30;;;;;;;7.69;50.41;100735.55;108024;1253;60227;-65
2024/03/02 00:38:23;;;;;;;100.50;42.80;;;;;;;7.70;50.11;100738.49;108040;1253;60320;-66
2024/03/02 00:40:51;;;;;;;97.40;42.80;;;;;;;7.70;50.21;100741.46;108156;1253;72573;-66
2024/03/02 00:43:58;;;;;;;84.40;39.30;;;;;;;7.77;50.01;100741.70;108077;1253;67856;-66
2024/03/02 00:46:27;;;;;;;91.60;42.50;;;;;;;7.86;49.97;100733.02;107462;1260;72464;-66
2024/03/02 00:48:56;;;;;;;88.80;41.30;;;;;;;7.82;49.55;100731.49;107769;1256;59758;-65
2024/03/02 00:51:29;;;;;;;87.20;40.70;;;;;;;7.81;49.76;100731.34;108091;1253;60368;-64
2024/03/02 00:53:59;;;;;;;87.50;41.90;;;;;;;7.68;50.33;100728.91;108078;1253;72387;-66
2024/03/02 00:56:26;;;;;;;100.60;47.10;;;;;;;7.74;50.09;100730.05;108052;1253;70084;-67
2024/03/02 00:58:54;;;;;;;95.90;43.10;;;;;;;7.74;49.81;100727.77;108008;1256;71285;-67
2024/03/02 01:01:22;;;;;;;85.80;39.50;;;;;;;7.72;50.14;100722.92;108033;1253;61079;-65
2024/03/02 01:03:50;;;;;;;87.30;42.60;;;;;;;7.63;50.07;100718.70;108032;1253;59014;-65
2024/03/02 01:06:18;;;;;;;91.50;43.30;;;;;;;7.53;50.47;100718.48;108071;1253;73769;-68
2024/03/02 01:08:50;;;;;;;74.70;36.20;;;;;;;7.52;50.48;100724.27;108044;1253;69995;-67
2024/03/02 01:11:18;;;;;;;86.10;40.80;;;;;;;7.49;50.52;100723.95;108101;1252;71756;-67
2024/03/02 01:13:46;;;;;;;84.10;37.80;;;;;;;7.41;50.51;100721.10;108009;1253;61528;-66
2024/03/02 01:16:15;;;;;;;96.90;42.40;;;;;;;7.38;51.18;100719.06;108023;1253;60211;-66
2024/03/02 01:18:43;;;;;;;91.30;42.80;;;;;;;7.39;51.24;100718.70;108041;1255;73986;-66
2024/03/02 01:21:10;;;;;;;70.40;33.40;;;;;;;7.41;51.00;100716.91;108029;1253;69061;-67
2024/03/02 01:23:38;;;;;;;77.80;36.80;;;;;;;7.38;50.77;100716.44;108080;1254;71450;-67
2024/03/02 01:26:07;;;;;;;82.60;38.50;;;;;;;7.13;51.88;100713.64;108054;1253;60656;-67
2024/03/02 01:28:34;;;;;;;81.00;39.40;;;;;;;7.25;51.87;100712.60;107986;1253;60537;-66
2024/03/02 01:31:03;;;;;;;92.60;42.10;;;;;;;7.39;51.54;100715.38;108080;1253;73597;-67
2024/03/02 01:33:31;;;;;;;85.20;37.10;;;;;;;7.32;51.87;100720.90;108015;1253;68858;-66
2024/03/02 01:35:58;;;;;;;88.00;41.00;;;;;;;7.30;52.15;100722.49;108112;1254;71675;-64
2024/03/02 01:38:26;;;;;;;83.70;39.80;;;;;;;7.39;51.77;100723.06;108098;1254;60830;-68
2024/03/02 01:40:55;;;;;;;85.50;41.20;;;;;;;7.40;51.94;100719.20;108074;1253;60306;-66
2024/03/02 01:43:22;;;;;;;83.30;40.70;;;;;;;7.37;51.98;100719.42;108106;1258;73871;-67
2024/03/02 01:45:49;;;;;;;78.30;36.40;;;;;;;7.37;52.12;100717.50;108108;1254;68851;-65
2024/03/02 01:48:17;;;;;;;83.10;40.60;;;;;;;7.44;51.91;100714.95;108027;1254;72954;-67
2024/03/02 01:50:44;;;;;;;81.10;39.00;;;;;;;7.40;51.70;100710.83;108066;1254;60447;-65
2024/03/02 01:53:15;;;;;;;81.00;40.70;;;;;;;7.32;51.91;100720.20;108126;1254;60440;-67
2024/03/02 01:55:43;;;;;;;79.80;38.80;;;;;;;7.21;51.96;100724.36;108083;1253;73053;-67
2024/03/02 01:58:10;;;;;;;94.70;41.40;;;;;;;7.24;52.00;100725.54;108093;1254;70342;-67
2024/03/02 02:00:38;;;;;;;85.70;40.60;;;;;;;7.21;51.93;100725.07;108092;1254;71502;-66
2024/03/02 02:03:06;;;;;;;85.00;40.60;;;;;;;7.21;51.79;100723.85;108115;1254;60882;-66
2024/03/02 02:05:35;;;;;;;98.30;44.30;;;;;;;7.18;51.88;100720.91;108109;1254;60404;-67
2024/03/02 02:08:03;;;;;;;90.50;43.50;;;;;;;7.10;52.06;100721.71;107981;1253;72554;-67
2024/03/02 02:10:31;;;;;;;84.10;40.90;;;;;;;7.07;51.87;100720.20;108070;1254;70405;-67
2024/03/02 02:12:58;;;;;;;89.10;42.60;;;;;;;7.07;51.76;100721.59;108093;1254;72742;-66
2024/03/02 02:15:30;;;;;;;105.10;48.10;;;;;;;7.03;51.49;100715.70;108138;1254;60424;-67
2024/03/02 02:17:58;;;;;;;90.40;43.00;;;;;;;7.02;51.54;100716.94;108081;1253;60103;-66
2024/03/02 02:20:26;;;;;;;110.50;48.70;;;;;;;6.91;51.54;100720.02;108114;1253;74291;-66
2024/03/02 02:23:13;;;;;;;95.60;45.60;;;;;;;6.79;51.43;100720.54;108109;1253;69929;-65
2024/03/02 02:25:41;;;;;;;100.20;44.80;;;;;;;6.77;51.32;100722.48;108115;1254;72749;-67
2024/03/02 02:28:08;;;;;;;97.20;44.70;;;;;;;6.68;51.36;100723.27;108092;1254;60786;-66
2024/03/02 02:30:36;;;;;;;88.00;42.60;;;;;;;6.60;51.63;100721.98;108075;1253;60420;-67
2024/03/02 02:33:03;;;;;;;87.60;43.70;;;;;;;6.53;51.84;100718.05;108078;1254;72824;-67
2024/03/02 02:35:31;;;;;;;105.40;46.70;;;;;;;6.56;52.19;100718.71;108080;1254;69933;-67
2024/03/02 02:37:59;;;;;;;95.50;44.20;;;;;;;6.55;52.27;100715.23;108109;1254;74534;-66
2024/03/02 02:40:29;;;;;;;106.40;48.40;;;;;;;6.49;52.34;100721.73;108061;1253;60914;-66
2024/03/02 02:42:58;;;;;;;97.40;45.40;;;;;;;6.38;52.38;100728.48;108112;1254;60001;-68
2024/03/02 02:45:26;;;;;;;109.30;48.30;;;;;;;6.35;52.33;100733.77;108150;1253;73868;-66
2024/03/02 02:47:54;;;;;;;98.30;48.40;;;;;;;6.15;52.69;100730.98;108088;1253;70508;-66
2024/03/02 02:50:22;;;;;;;95.40;45.40;;;;;;;6.04;53.08;100725.67;108051;1254;73033;-67
2024/03/02 02:52:50;;;;;;;100.20;45.80;;;;;;;6.09;53.05;100729.29;108024;1256;61738;-65
2024/03/02 02:55:17;;;;;;;111.10;50.00;;;;;;;6.05;53.07;100731.94;108007;1254;60364;-67
2024/03/02 02:57:46;;;;;;;108.50;49.20;;;;;;;6.07;52.97;100735.77;107975;1253;72584;-66
2024/03/02 03:00:15;;;;;;;113.00;50.30;;;;;;;6.04;53.12;100737.35;107994;1254;68855;-66
2024/03/02 03:02:48;;;;;;;114.50;51.60;;;;;;;6.06;53.13;100733.85;108001;1259;72511;-67
2024/03/02 03:05:17;;;;;;;105.60;50.20;;;;;;;6.01;53.08;100728.85;108103;1254;61672;-67
2024/03/02 03:07:45;;;;;;;116.70;51.80;;;;;;;5.95;53.22;100727.66;108070;1254;60462;-65
2024/03/02 03:10:13;;;;;;;96.50;45.70;;;;;;;5.92;53.43;100731.16;108078;1257;72788;-66
2024/03/02 03:12:42;;;;;;;112.40;51.50;;;;;;;5.91;53.44;100729.08;108128;1254;68749;-67
2024/03/02 03:15:12;;;;;;;110.20;50.70;;;;;;;5.85;53.49;100728.77;108108;1254;71267;-66
2024/03/02 03:17:40;;;;;;;97.30;45.10;;;;;;;5.78;54.14;100731.79;108086;1254;60362;-66
2024/03/02 03:20:12;;;;;;;98.00;47.40;;;;;;;5.77;54.19;100732.66;108111;1254;60273;-66
2024/03/02 03:22:40;;;;;;;102.90;46.40;;;;;;;5.80;54.20;100730.55;107995;1254;72807;-66
2024/03/02 03:25:10;;;;;;;101.80;47.80;;;;;;;5.82;54.50;100730.54;108143;1253;70220;-65
2024/03/02 03:27:37;;;;;;;103.80;48.30;;;;;;;5.88;54.46;100720.90;108028;1257;72666;-66
2024/03/02 03:30:06;;;;;;;92.80;43.40;;;;;;;5.93;54.63;100723.48;108086;1254;60460;-67
2024/03/02 03:32:34;;;;;;;100.40;48.00;;;;;;;5.93;55.01;100717.73;108112;1254;60424;-67
2024/03/02 03:35:03;;;;;;;97.90;47.80;;;;;;;6.02;54.94;100717.49;108012;1253;73885;-66
2024/03/02 03:37:32;;;;;;;96.40;45.50;;;;;;;6.08;54.71;100715.19;108096;1253;70225;-65
2024/03/02 03:40:02;;;;;;;98.30;49.60;;;;;;;6.03;55.30;100714.88;108054;1253;72704;-66
2024/03/02 03:42:30;;;;;;;102.00;45.60;;;;;;;6.04;55.02;100716.79;108186;1253;60330;-67
2024/03/02 03:44:58;;;;;;;97.20;45.50;;;;;;;6.12;54.93;100719.50;108135;1253;60705;-66
2024/03/02 03:47:25;;;;;;;100.50;45.10;;;;;;;6.14;54.78;100722.10;108149;1253;73821;-63
2024/03/02 03:49:53;;;;;;;99.20;44.10;;;;;;;6.09;54.75;100718.30;108082;1253;70293;-66
2024/03/02 03:52:21;;;;;;;99.70;44.40;;;;;;;6.09;54.83;100715.34;108037;1258;72476;-65
2024/03/02 03:54:48;;;;;;;85.80;39.50;;;;;;;6.16;54.50;100711.09;108012;1251;60347;-66
2024/03/02 03:57:16;;;;;;;95.40;44.90;;;;;;;6.23;54.36;100705.27;108073;1253;60233;-66
2024/03/02 03:59:44;;;;;;;96.10;43.70;;;;;;;6.28;54.41;100699.81;108021;1253;72548;-66
2024/03/02 04:02:12;;;;;;;95.00;43.80;;;;;;;6.24;54.57;100698.10;108027;1252;69501;-66
2024/03/02 04:04:40;;;;;;;93.60;43.70;;;;;;;6.27;54.27;100702.27;107987;1258;71395;-67
2024/03/02 04:07:07;;;;;;;90.40;43.60;;;;;;;6.26;54.35;100701.23;108024;1258;60895;-67
2024/03/02 04:09:35;;;;;;;91.70;44.60;;;;;;;6.24;54.33;100697.24;108091;1253;60050;-66
2024/03/02 04:12:03;;;;;;;95.00;46.50;;;;;;;6.23;54.36;100697.77;108100;1253;73789;-68
2024/03/02 04:14:31;;;;;;;97.70;44.30;;;;;;;6.14;54.76;100696.13;108108;1252;67737;-65
2024/03/02 04:16:58;;;;;;;98.90;44.10;;;;;;;6.18;54.41;100701.48;108014;1253;71697;-66
2024/03/02 04:19:26;;;;;;;90.70;43.00;;;;;;;6.23;54.23;100700.91;108049;1253;61607;-67
2024/03/02 04:21:53;;;;;;;93.60;44.40;;;;;;;6.09;54.47;100702.79;108045;1252;60322;-66
2024/03/02 04:24:21;;;;;;;99.50;45.10;;;;;;;6.08;54.49;100706.63;108085;1253;72878;-66
2024/03/02 04:26:48;;;;;;;96.10;43.90;;;;;;;6.01;54.62;100703.55;108057;1258;69704;-65
2024/03/02 04:29:16;;;;;;;88.60;40.50;;;;;;;6.01;54.56;100705.49;108064;1257;71914;-65
2024/03/02 04:31:43;;;;;;;104.50;43.50;;;;;;;6.00;54.34;100705.50;108063;1253;60887;-67
2024/03/02 04:34:11;;;;;;;98.00;43.30;;;;;;;5.97;54.31;100704.64;108144;1254;60317;-66
2024/03/02 04:36:39;;;;;;;93.50;42.70;;;;;;;6.02;54.46;100703.39;108003;1254;73899;-67
2024/03/02 04:39:09;;;;;;;99.60;45.00;;;;;;;5.97;54.58;100703.06;108105;1252;69149;-66
2024/03/02 04:41:37;;;;;;;98.30;43.40;;;;;;;5.85;55.01;100705.94;108024;1254;71656;-67
2024/03/02 04:44:04;;;;;;;94.00;43.30;;;;;;;5.92;55.03;100704.67;108083;1254;59731;-67
2024/03/02 04:46:32;;;;;;;91.10;42.60;;;;;;;5.93;54.77;100706.39;108061;1254;60258;-66
2024/03/02 04:48:59;;;;;;;91.40;44.00;;;;;;;5.93;54.74;100705.88;108074;1252;73870;-66
2024/03/02 04:51:27;;;;;;;92.30;43.40;;;;;;;5.96;54.68;100705.02;108098;1254;70496;-64
2024/03/02 04:53:54;;;;;;;91.10;42.00;;;;;;;6.00;54.49;100705.14;108063;1254;72813;-67
2024/03/02 04:58:55;;;;;;;90.90;42.70;;;;;;;5.96;54.72;100706.05;108133;1253;60374;-67
2024/03/02 05:01:22;;;;;;;87.70;42.30;;;;;;;5.94;54.82;100699.77;108142;1252;73886;-67
2024/03/02 05:03:50;;;;;;;91.40;44.50;;;;;;;5.95;54.65;100700.83;108122;1253;68940;-67
2024/03/02 05:06:18;;;;;;;101.10;44.00;;;;;;;6.01;54.66;100697.98;108094;1254;72769;-66
2024/03/02 05:08:47;;;;;;;92.90;41.80;;;;;;;6.06;54.36;100695.50;108096;1253;60478;-67
2024/03/02 05:11:38;;;;;;;97.80;42.90;;;;;;;6.06;54.48;100697.59;108180;1252;60282;-66
2024/03/02 05:14:06;;;;;;;88.80;42.40;;;;;;;6.07;54.52;100704.73;108086;1252;72651;-67
2024/03/02 05:16:41;;;;;;;85.20;42.30;;;;;;;6.21;54.24;100702.16;108032;1253;70119;-66
2024/03/02 05:19:08;;;;;;;90.20;40.30;;;;;;;6.30;54.00;100699.63;107908;1253;71418;-67
2024/03/02 05:21:36;;;;;;;89.90;41.70;;;;;;;6.34;54.00;100697.66;107960;1259;60342;-67
2024/03/02 05:24:04;;;;;;;91.60;41.60;;;;;;;6.40;53.80;100700.39;107976;1253;60200;-66
2024/03/02 05:26:31;;;;;;;97.70;42.50;;;;;;;6.41;53.76;100702.48;107976;1253;73875;-66
2024/03/02 05:28:59;;;;;;;88.40;41.60;;;;;;;6.34;54.04;100701.33;108004;1253;69371;-66
2024/03/02 05:31:26;;;;;;;94.60;40.70;;;;;;;6.38;54.13;100699.36;108012;1253;71854;-67
2024/03/02 05:33:54;;;;;;;79.20;38.70;;;;;;;6.42;53.93;100697.41;107997;1253;60885;-66
2024/03/02 05:36:24;;;;;;;91.40;42.10;;;;;;;6.44;53.99;100691.46;108192;1253;60521;-65
2024/03/02 05:38:52;;;;;;;84.10;41.00;;;;;;;6.68;54.20;100697.63;108169;1253;74176;-68
2024/03/02 05:41:20;;;;;;;78.40;40.00;;;;;;;7.16;53.74;100692.83;108127;1253;68879;-66
2024/03/02 05:43:48;;;;;;;79.70;38.90;;;;;;;7.74;52.57;100691.93;108096;1253;71647;-65
2024/03/02 05:46:17;;;;;;;81.40;39.70;;;;;;;8.20;51.52;100693.25;108147;1253;60941;-67
2024/03/02 05:48:46;;;;;;;80.80;38.00;;;;;;;8.55;50.18;100687.88;108088;1252;60134;-66
2024/03/02 05:51:13;;;;;;;72.10;35.40;;;;;;;9.06;48.92;100682.79;108175;1257;73912;-66
2024/03/02 05:53:41;;;;;;;72.10;35.40;;;;;;;9.54;47.60;100688.89;108061;1253;69352;-67
2024/03/02 05:56:09;;;;;;;71.00;33.20;;;;;;;9.99;46.93;100681.81;108161;1253;72496;-67
2024/03/02 06:01:28;;;;;;;66.70;32.40;;;;;;;10.71;44.85;100688.50;108094;1252;60318;-68
2024/03/02 06:03:56;;;;;;;66.60;32.30;;;;;;;11.18;44.20;100692.05;108012;1258;74506;-68
2024/03/02 06:06:23;;;;;;;57.30;31.30;;;;;;;11.34;43.60;100697.70;108039;1258;70161;-66
2024/03/02 06:08:51;;;;;;;62.90;32.10;;;;;;;11.71;42.90;100695.47;108120;1253;71553;-68
2024/03/02 06:11:19;;;;;;;56.50;30.50;;;;;;;11.82;42.09;100692.80;108022;1253;60873;-67
2024/03/02 06:13:46;;;;;;;55.60;30.30;;;;;;;12.05;41.63;100691.52;108124;1254;59130;-66
2024/03/02 06:16:14;;;;;;;50.30;30.60;;;;;;;12.44;40.73;100693.91;108120;1253;73896;-68
2024/03/02 06:18:42;;;;;;;59.00;30.70;;;;;;;12.78;40.61;100688.77;108000;1252;70948;-66
2024/03/02 06:21:09;;;;;;;57.30;29.60;;;;;;;13.07;39.59;100692.64;107968;1255;71263;-66
2024/03/02 06:23:37;;;;;;;56.00;31.30;;;;;;;13.25;39.39;100700.39;108178;1253;60926;-68
2024/03/02 06:26:04;;;;;;;52.10;28.30;;;;;;;13.64;39.09;100696.73;108064;1253;60480;-68
2024/03/02 06:28:32;;;;;;;53.90;29.90;;;;;;;13.96;37.83;100694.36;108185;1257;72646;-67
2024/03/02 06:30:59;;;;;;;55.10;28.80;;;;;;;14.21;37.54;100696.68;108085;1253;69726;-69
2024/03/02 06:33:27;;;;;;;52.60;26.90;;;;;;;14.30;36.89;100699.25;108101;1257;72641;-67
2024/03/02 06:35:54;;;;;;;55.80;27.70;;;;;;;14.40;36.53;100695.50;108127;1253;60302;-68
2024/03/02 06:38:22;;;;;;;51.90;28.30;;;;;;;14.08;36.53;100696.86;108106;1253;60403;-68
2024/03/02 06:40:49;;;;;;;49.40;26.60;;;;;;;14.17;36.55;100700.36;108026;1253;72636;-68
2024/03/02 06:43:17;;;;;;;53.50;28.50;;;;;;;14.42;36.37;100697.70;108057;1252;70502;-68
2024/03/02 06:45:44;;;;;;;49.50;27.60;;;;;;;14.60;35.91;100695.20;108053;1254;71926;-67
2024/03/02 06:48:12;;;;;;;55.70;29.00;;;;;;;14.72;35.63;100693.57;108009;1254;60473;-68
2024/03/02 06:50:39;;;;;;;53.70;28.20;;;;;;;14.95;35.47;100687.20;108021;1253;60261;-69
2024/03/02 06:53:07;;;;;;;50.10;26.70;;;;;;;15.15;34.76;100688.39;108147;1253;73379;-68
2024/03/02 06:55:35;;;;;;;47.70;25.60;;;;;;;15.43;34.94;100690.97;108156;1253;70421;-67
2024/03/02 06:58:02;;;;;;;53.30;27.30;;;;;;;15.66;34.23;100692.31;107888;1253;124044;-67
2024/03/02 07:02:02;;;;;;;46.10;26.40;;;;;;;14.92;35.44;100694.42;104931;1289;601036;-70
2024/03/02 07:04:29;;;;;;;53.70;27.70;;;;;;;16.02;33.48;100691.43;107778;1260;60049;-68
2024/03/02 07:06:57;;;;;;;46.20;25.90;;;;;;;16.04;33.11;100696.49;107932;1254;62188;-66
2024/03/02 07:09:25;;;;;;;47.80;26.80;;;;;;;16.01;33.12;100695.41;107944;1254;72240;-68
2024/03/02 07:11:53;;;;;;;48.90;26.40;;;;;;;16.21;32.88;100689.58;107928;1254;69930;-68
2024/03/02 07:14:20;;;;;;;42.20;25.70;;;;;;;16.26;33.05;100683.52;108033;1254;72750;-68
2024/03/02 07:16:48;;;;;;;45.40;27.50;;;;;;;16.36;32.74;100683.14;108051;1254;116651;-68
2024/03/02 07:19:16;;;;;;;40.40;24.50;;;;;;;16.57;32.55;100680.10;108146;1252;59355;-68
2024/03/02 07:21:43;;;;;;;47.60;26.40;;;;;;;16.65;32.26;100678.05;108028;1252;72008;-70
2024/03/02 07:24:13;;;;;;;43.90;26.00;;;;;;;16.62;31.93;100680.86;108162;1253;69034;-68
2024/03/02 07:26:40;;;;;;;51.50;26.80;;;;;;;16.82;32.05;100674.50;108063;1254;72769;-69
2024/03/02 07:29:11;;;;;;;50.90;25.50;;;;;;;16.89;31.84;100671.65;108150;1254;59510;-68
2024/03/02 07:31:38;;;;;;;45.70;26.60;;;;;;;17.15;31.74;100676.60;108122;1252;60045;-68
2024/03/02 07:34:06;;;;;;;46.10;27.30;;;;;;;17.14;31.30;100674.92;108023;1252;71776;-68
2024/03/02 07:36:33;;;;;;;47.10;25.90;;;;;;;17.40;30.98;100677.02;108081;1254;70147;-68
2024/03/02 07:39:01;;;;;;;51.70;27.80;;;;;;;17.52;30.71;100669.23;108106;1255;71394;-69
2024/03/02 07:41:28;;;;;;;47.10;26.40;;;;;;;17.43;30.62;100670.41;108120;1253;59528;-68
2024/03/02 07:43:56;;;;;;;50.20;26.50;;;;;;;17.42;30.50;100671.58;108139;1253;59557;-68
2024/03/02 07:46:24;;;;;;;46.70;27.40;;;;;;;17.54;30.52;100666.23;108114;1254;73048;-68
2024/03/02 07:48:52;;;;;;;50.80;26.40;;;;;;;17.73;30.33;100659.48;108128;1254;70750;-68
2024/03/02 07:51:20;;;;;;;57.20;28.80;;;;;;;17.72;30.29;100658.84;108118;1254;72662;-67
2024/03/02 07:53:47;;;;;;;76.90;29.60;;;;;;;17.86;30.13;100650.91;108096;1254;59555;-69
2024/03/02 07:56:21;;;;;;;56.30;27.90;;;;;;;18.15;30.07;100652.23;108093;1254;59528;-68
2024/03/02 07:58:49;;;;;;;48.10;27.60;;;;;;;18.23;29.53;100652.46;108123;1254;73027;-69
2024/03/02 08:01:17;;;;;;;52.40;26.80;;;;;;;18.27;29.25;100649.92;107981;1259;70646;-69
2024/03/02 08:03:47;;;;;;;55.80;27.60;;;;;;;18.34;29.38;100652.82;108096;1252;72652;-69
2024/03/02 08:06:17;;;;;;;50.70;26.60;;;;;;;18.40;29.64;100649.27;108088;1254;60639;-69
2024/03/02 08:08:44;;;;;;;69.00;28.20;;;;;;;18.80;29.59;100646.44;108102;1252;60176;-70
2024/03/02 08:11:12;;;;;;;48.70;26.50;;;;;;;19.04;28.82;100645.83;108076;1254;71844;-69
2024/03/02 08:13:41;;;;;;;55.30;25.40;;;;;;;19.18;28.70;100649.60;108075;1253;70017;-68
2024/03/02 08:16:09;;;;;;;48.40;25.50;;;;;;;19.29;28.71;100649.18;108111;1254;72702;-69
2024/03/02 08:18:36;;;;;;;44.70;24.10;;;;;;;19.41;28.38;100643.08;108110;1253;62462;-70
2024/03/02 08:21:04;;;;;;;34.20;20.80;;;;;;;19.46;27.92;100641.52;108116;1257;60033;-69
2024/03/02 08:23:32;;;;;;;38.60;21.80;;;;;;;19.45;27.70;100639.39;108047;1252;72901;-68
2024/03/02 08:26:00;;;;;;;42.50;22.60;;;;;;;19.19;27.83;100645.80;108145;1253;72179;-68
2024/03/02 08:28:28;;;;;;;36.90;20.00;;;;;;;19.18;27.75;100639.09;107919;1259;75161;-68
2024/03/02 08:30:56;;;;;;;40.50;21.30;;;;;;;19.39;27.69;100645.71;107949;1254;59679;-67
2024/03/02 08:33:24;;;;;;;39.80;21.60;;;;;;;19.11;27.23;100645.38;108085;1253;59452;-68
2024/03/02 08:35:52;;;;;;;38.00;21.20;;;;;;;18.82;27.68;100644.73;108029;1257;73100;-68
2024/03/02 08:38:19;;;;;;;42.50;22.50;;;;;;;18.70;28.15;100641.17;107946;1254;69961;-67
2024/03/02 08:40:47;;;;;;;47.20;23.30;;;;;;;18.53;28.32;100639.26;107832;1254;71248;-67
2024/03/02 08:43:15;;;;;;;39.70;22.80;;;;;;;18.76;28.36;100637.27;107995;1257;60081;-68
2024/03/02 08:45:42;;;;;;;38.60;22.70;;;;;;;18.67;28.27;100637.28;108004;1254;59535;-68
2024/03/02 08:48:13;;;;;;;42.00;23.60;;;;;;;18.61;28.34;100635.69;107952;1253;71766;-68
2024/03/02 08:50:41;;;;;;;39.40;22.90;;;;;;;18.75;28.31;100637.17;107921;1254;70315;-69
2024/03/02 08:53:08;;;;;;;39.60;22.80;;;;;;;18.70;28.10;100633.02;108090;1254;71435;-68
2024/03/02 08:55:36;;;;;;;34.50;21.10;;;;;;;18.73;28.17;100635.17;107982;1256;59685;-69
2024/03/02 08:58:03;;;;;;;39.00;21.40;;;;;;;18.72;28.14;100629.37;107815;1254;59499;-68
2024/03/02 09:00:31;;;;;;;43.80;23.60;;;;;;;18.86;28.16;100627.58;107850;1254;72063;-68
2024/03/02 09:02:59;;;;;;;39.00;22.40;;;;;;;19.21;28.21;100624.98;108028;1254;70529;-68
2024/03/02 09:05:26;;;;;;;35.40;20.60;;;;;;;19.55;27.26;100627.54;107993;1256;72693;-68
2024/03/02 09:07:54;;;;;;;39.00;20.70;;;;;;;19.26;27.24;100625.38;107970;1255;60176;-68
2024/03/02 09:10:22;;;;;;;38.80;20.90;;;;;;;18.55;27.93;100626.29;107985;1254;59459;-69
2024/03/02 09:12:52;;;;;;;;;;;;;;;17.95;28.74;100627.28;108093;1254;72005;-69
2024/03/02 09:15:20;;;;;;;42.80;20.90;;;;;;;17.60;29.44;100624.55;107868;1259;69837;-68
2024/03/02 09:17:47;;;;;;;38.20;18.60;;;;;;;17.25;29.76;100632.41;108103;1254;71753;-68
2024/03/02 09:20:16;;;;;;;35.10;17.30;;;;;;;17.16;29.54;100628.82;107978;1254;60295;-68
2024/03/02 09:22:47;;;;;;;34.10;16.90;;;;;;;17.10;29.47;100632.21;108005;1254;59610;-69
2024/03/02 09:25:15;;;;;;;35.30;17.80;;;;;;;17.06;29.88;100627.48;108037;1253;72079;-68
2024/03/02 09:27:43;;;;;;;29.50;17.00;;;;;;;17.20;29.86;100625.60;108010;1256;70610;-68
2024/03/02 09:30:11;;;;;;;28.80;18.10;;;;;;;16.99;29.55;100625.90;108001;1254;72799;-68
2024/03/02 09:32:40;;;;;;;34.60;17.30;;;;;;;16.86;29.93;100623.39;108019;1254;60108;-68
2024/03/02 09:35:08;;;;;;;30.90;17.30;;;;;;;16.71;30.01;100624.00;108041;1253;60054;-66
2024/03/02 09:37:36;;;;;;;33.00;15.50;;;;;;;16.47;30.06;100620.91;108012;1253;72957;-68
2024/03/02 09:40:06;;;;;;;30.70;15.40;;;;;;;16.26;30.28;100622.02;108044;1254;69358;-68
2024/03/02 09:42:33;;;;;;;30.30;15.70;;;;;;;16.30;29.92;100623.05;108045;1254;71926;-65
2024/03/02 09:45:01;;;;;;;36.30;16.00;;;;;;;16.41;29.74;100615.73;107892;1254;60134;-70
2024/03/02 09:47:28;;;;;;;41.20;16.40;;;;;;;16.40;29.84;100612.41;108008;1253;59439;-69
2024/03/02 09:49:56;;;;;;;35.40;15.90;;;;;;;16.78;29.69;100609.48;108055;1254;73211;-68
2024/03/02 09:52:23;;;;;;;32.40;15.50;;;;;;;17.19;28.89;100609.48;107988;1253;69939;-68
2024/03/02 09:54:51;;;;;;;24.50;14.50;;;;;;;17.71;28.53;100603.83;107828;1259;72699;-69
2024/03/02 09:57:18;;;;;;;25.30;14.20;;;;;;;18.12;27.84;100613.67;108067;1253;59500;-69
2024/03/02 09:59:46;;;;;;;27.00;13.50;;;;;;;18.19;27.71;100610.75;108060;1256;60432;-69
2024/03/02 10:02:13;;;;;;;28.90;13.70;;;;;;;18.54;27.36;100615.34;108059;1253;75181;-69
2024/03/02 10:04:41;;;;;;;28.10;12.40;;;;;;;18.93;26.82;100617.17;108025;1254;71732;-68
2024/03/02 10:07:16;;;;;;;31.00;12.70;;;;;;;19.07;26.47;100618.06;107945;1253;71796;-68
2024/03/02 10:09:47;;;;;;;23.30;12.70;;;;;;;19.18;26.14;100615.77;108087;1253;60036;-69
2024/03/02 10:12:16;;;;;;;26.40;13.80;;;;;;;19.20;26.17;100613.49;107947;1253;60040;-65
2024/03/02 10:14:44;;;;;;;29.20;14.50;;;;;;;19.42;26.17;100603.14;108137;1253;71781;-68
2024/03/02 10:17:12;;;;;;;21.20;12.70;;;;;;;19.84;25.61;100604.45;108063;1258;70486;-69
2024/03/02 10:19:40;;;;;;;29.10;14.30;;;;;;;19.89;25.40;100599.24;108088;1254;72511;-68
2024/03/02 10:22:10;;;;;;;23.10;12.80;;;;;;;19.74;25.88;100605.48;108092;1254;60069;-69
2024/03/02 10:24:40;;;;;;;23.60;13.50;;;;;;;19.77;25.77;100604.57;108133;1254;61000;-69
2024/03/02 10:27:26;;;;;;;28.00;15.30;;;;;;;19.86;25.84;100598.96;108044;1254;75309;-69
2024/03/02 10:29:54;;;;;;;26.90;12.70;;;;;;;19.54;26.24;100603.21;108110;1253;70722;-68
2024/03/02 10:32:22;;;;;;;32.50;15.20;;;;;;;19.00;26.83;100603.95;108066;1254;74741;-69
2024/03/02 10:34:49;;;;;;;27.90;13.40;;;;;;;18.80;27.14;100605.36;108025;1256;59614;-70
2024/03/02 10:37:17;;;;;;;28.10;13.50;;;;;;;18.66;27.09;100603.40;107957;1256;59558;-68
2024/03/02 10:39:48;;;;;;;24.50;12.60;;;;;;;18.55;26.67;100599.47;107965;1254;72794;-69
2024/03/02 10:42:16;;;;;;;32.20;14.50;;;;;;;18.27;27.31;100601.20;107940;1254;70182;-69
2024/03/02 10:44:43;;;;;;;29.80;15.00;;;;;;;17.99;27.94;100594.75;107698;1253;71804;-69
2024/03/02 10:47:11;;;;;;;30.80;14.20;;;;;;;17.70;28.35;100589.67;107825;1256;59641;-68
2024/03/02 10:49:38;;;;;;;29.40;13.70;;;;;;;17.44;28.82;100594.59;107798;1254;59493;-68
2024/03/02 10:52:06;;;;;;;31.60;14.20;;;;;;;17.48;29.02;100593.67;107867;1254;72879;-69
2024/03/02 10:54:36;;;;;;;29.40;14.90;;;;;;;17.46;28.85;100590.38;107907;1260;68716;-69
2024/03/02 10:57:05;;;;;;;27.10;15.30;;;;;;;17.42;29.27;100593.14;107898;1257;73025;-68
2024/03/02 10:59:33;;;;;;;30.60;15.70;;;;;;;17.27;29.50;100584.02;107753;1256;59535;-68
2024/03/02 11:02:03;;;;;;;29.70;13.70;;;;;;;17.25;29.59;100584.81;107989;1254;59216;-68
2024/03/02 11:04:34;;;;;;;26.80;14.20;;;;;;;17.28;29.64;100581.34;107978;1253;73262;-67
2024/03/02 11:07:10;;;;;;;27.10;13.40;;;;;;;17.48;29.24;100583.02;107714;1254;71008;-69
2024/03/02 11:09:41;;;;;;;38.00;15.70;;;;;;;17.44;29.21;100586.24;108015;1256;70547;-69
2024/03/02 11:13:01;;;;;;;32.10;15.00;;;;;;;17.47;29.03;100584.14;107953;1254;60432;-68
2024/03/02 11:15:29;;;;;;;33.10;15.60;;;;;;;17.62;29.17;100572.39;107903;1253;61983;-68
2024/03/02 11:17:57;;;;;;;30.20;14.30;;;;;;;17.72;29.21;100573.60;107973;1254;75078;-69